sensor_id;sensor_type;location;lat;lon;timestamp;P1;durP1;ratioP1;P2;durP2;ratioP2
12212;SDS011;6169;44.158;22.788;2024-02-28T00:03:42;31.83;;;19.10;;
12212;SDS011;6169;44.158;22.788;2024-02-28T00:08:44;36.93;;;19.20;;
12212;SDS011;6169;44.158;22.788;2024-02-28T00:13:47;39.77;;;18.70;;
12212;SDS011;6169;44.158;22.788;2024-02-28T00:18:51;39.13;;;19.83;;
12212;SDS011;6169;44.158;22.788;2024-02-28T00:23:53;35.53;;;19.77;;
12212;SDS011;6169;44.158;22.788;2024-02-28T00:28:55;43.97;;;18.47;;
12212;SDS011;6169;44.158;22.788;2024-02-28T00:33:58;30.53;;;17.40;;
12212;SDS011;6169;44.158;22.788;2024-02-28T00:39:00;33.53;;;17.17;;
12212;SDS011;6169;44.158;22.788;2024-02-28T00:44:04;34.00;;;18.93;;
12212;SDS011;6169;44.158;22.788;2024-02-28T00:49:07;30.17;;;17.17;;
12212;SDS011;6169;44.158;22.788;2024-02-28T00:54:09;34.63;;;20.20;;
12212;SDS011;6169;44.158;22.788;2024-02-28T00:59:11;39.10;;;19.53;;
12212;SDS011;6169;44.158;22.788;2024-02-28T01:04:15;34.37;;;19.67;;
12212;SDS011;6169;44.158;22.788;2024-02-28T01:09:17;34.30;;;17.73;;
12212;SDS011;6169;44.158;22.788;2024-02-28T01:14:19;39.43;;;18.10;;
12212;SDS011;6169;44.158;22.788;2024-02-28T01:19:22;29.77;;;17.07;;
12212;SDS011;6169;44.158;22.788;2024-02-28T01:24:25;39.80;;;18.13;;
12212;SDS011;6169;44.158;22.788;2024-02-28T01:29:27;40.70;;;21.47;;
12212;SDS011;6169;44.158;22.788;2024-02-28T01:34:31;39.17;;;21.43;;
12212;SDS011;6169;44.158;22.788;2024-02-28T01:39:33;42.75;;;20.73;;
12212;SDS011;6169;44.158;22.788;2024-02-28T01:44:35;46.53;;;22.50;;
12212;SDS011;6169;44.158;22.788;2024-02-28T01:49:43;39.22;;;23.52;;
12212;SDS011;6169;44.158;22.788;2024-02-28T01:54:48;38.17;;;20.77;;
12212;SDS011;6169;44.158;22.788;2024-02-28T01:59:50;35.35;;;19.30;;
12212;SDS011;6169;44.158;22.788;2024-02-28T02:04:56;37.33;;;22.40;;
12212;SDS011;6169;44.158;22.788;2024-02-28T02:09:58;40.00;;;22.70;;
12212;SDS011;6169;44.158;22.788;2024-02-28T02:15:00;43.53;;;24.45;;
12212;SDS011;6169;44.158;22.788;2024-02-28T02:20:04;47.60;;;24.13;;
12212;SDS011;6169;44.158;22.788;2024-02-28T02:25:10;41.83;;;21.15;;
12212;SDS011;6169;44.158;22.788;2024-02-28T02:30:12;46.38;;;22.55;;
12212;SDS011;6169;44.158;22.788;2024-02-28T02:35:14;38.72;;;20.58;;
12212;SDS011;6169;44.158;22.788;2024-02-28T02:40:18;36.25;;;20.95;;
12212;SDS011;6169;44.158;22.788;2024-02-28T02:45:20;36.80;;;20.13;;
12212;SDS011;6169;44.158;22.788;2024-02-28T02:50:22;39.30;;;21.15;;
12212;SDS011;6169;44.158;22.788;2024-02-28T02:55:25;34.78;;;20.95;;
12212;SDS011;6169;44.158;22.788;2024-02-28T03:00:27;32.53;;;18.65;;
12212;SDS011;6169;44.158;22.788;2024-02-28T03:05:30;35.30;;;19.02;;
12212;SDS011;6169;44.158;22.788;2024-02-28T03:10:33;33.80;;;19.98;;
12212;SDS011;6169;44.158;22.788;2024-02-28T03:15:35;32.25;;;16.98;;
12212;SDS011;6169;44.158;22.788;2024-02-28T03:20:37;34.97;;;19.33;;
12212;SDS011;6169;44.158;22.788;2024-02-28T03:25:41;29.43;;;18.67;;
12212;SDS011;6169;44.158;22.788;2024-02-28T03:30:43;38.50;;;19.70;;
12212;SDS011;6169;44.158;22.788;2024-02-28T03:35:45;32.35;;;17.80;;
12212;SDS011;6169;44.158;22.788;2024-02-28T03:40:48;34.53;;;18.20;;
12212;SDS011;6169;44.158;22.788;2024-02-28T03:45:50;35.67;;;18.47;;
12212;SDS011;6169;44.158;22.788;2024-02-28T03:50:52;25.27;;;16.30;;
12212;SDS011;6169;44.158;22.788;2024-02-28T03:55:56;33.20;;;19.23;;
12212;SDS011;6169;44.158;22.788;2024-02-28T04:00:58;31.57;;;18.27;;
12212;SDS011;6169;44.158;22.788;2024-02-28T04:06:00;34.80;;;19.40;;
12212;SDS011;6169;44.158;22.788;2024-02-28T04:11:04;29.60;;;18.40;;
12212;SDS011;6169;44.158;22.788;2024-02-28T04:16:06;28.07;;;17.17;;
12212;SDS011;6169;44.158;22.788;2024-02-28T04:21:09;46.10;;;17.93;;
12212;SDS011;6169;44.158;22.788;2024-02-28T04:26:12;29.60;;;15.83;;
12212;SDS011;6169;44.158;22.788;2024-02-28T04:31:14;26.23;;;16.20;;
12212;SDS011;6169;44.158;22.788;2024-02-28T04:36:16;28.00;;;16.37;;
12212;SDS011;6169;44.158;22.788;2024-02-28T04:41:20;27.87;;;16.83;;
12212;SDS011;6169;44.158;22.788;2024-02-28T04:46:22;27.63;;;16.67;;
12212;SDS011;6169;44.158;22.788;2024-02-28T04:51:24;41.63;;;22.40;;
12212;SDS011;6169;44.158;22.788;2024-02-28T04:56:27;34.03;;;19.17;;
12212;SDS011;6169;44.158;22.788;2024-02-28T05:01:29;29.20;;;17.33;;
12212;SDS011;6169;44.158;22.788;2024-02-28T05:06:31;33.33;;;17.67;;
12212;SDS011;6169;44.158;22.788;2024-02-28T05:11:35;33.73;;;18.70;;
12212;SDS011;6169;44.158;22.788;2024-02-28T05:16:37;31.60;;;17.70;;
12212;SDS011;6169;44.158;22.788;2024-02-28T05:21:39;32.27;;;17.97;;
12212;SDS011;6169;44.158;22.788;2024-02-28T05:26:43;33.83;;;17.20;;
12212;SDS011;6169;44.158;22.788;2024-02-28T05:31:45;30.63;;;16.30;;
12212;SDS011;6169;44.158;22.788;2024-02-28T05:36:47;28.57;;;16.33;;
12212;SDS011;6169;44.158;22.788;2024-02-28T05:41:52;38.97;;;23.40;;
12212;SDS011;6169;44.158;22.788;2024-02-28T05:46:54;39.53;;;19.07;;
12212;SDS011;6169;44.158;22.788;2024-02-28T05:51:56;32.53;;;17.20;;
12212;SDS011;6169;44.158;22.788;2024-02-28T05:56:59;28.77;;;18.43;;
12212;SDS011;6169;44.158;22.788;2024-02-28T06:02:01;28.90;;;16.10;;
12212;SDS011;6169;44.158;22.788;2024-02-28T06:07:03;33.33;;;18.27;;
12212;SDS011;6169;44.158;22.788;2024-02-28T06:12:07;30.10;;;16.97;;
12212;SDS011;6169;44.158;22.788;2024-02-28T06:17:09;37.23;;;22.20;;
12212;SDS011;6169;44.158;22.788;2024-02-28T06:22:11;41.90;;;24.63;;
12212;SDS011;6169;44.158;22.788;2024-02-28T06:27:15;29.90;;;17.67;;
12212;SDS011;6169;44.158;22.788;2024-02-28T06:32:17;37.67;;;17.63;;
12212;SDS011;6169;44.158;22.788;2024-02-28T06:37:19;30.85;;;17.25;;
12212;SDS011;6169;44.158;22.788;2024-02-28T06:42:23;32.90;;;18.23;;
12212;SDS011;6169;44.158;22.788;2024-02-28T06:47:25;26.33;;;14.55;;
12212;SDS011;6169;44.158;22.788;2024-02-28T06:52:27;42.70;;;22.65;;
12212;SDS011;6169;44.158;22.788;2024-02-28T06:57:30;32.65;;;18.05;;
12212;SDS011;6169;44.158;22.788;2024-02-28T07:02:32;33.33;;;17.38;;
12212;SDS011;6169;44.158;22.788;2024-02-28T07:07:35;37.97;;;20.30;;
12212;SDS011;6169;44.158;22.788;2024-02-28T07:12:38;36.72;;;19.52;;
12212;SDS011;6169;44.158;22.788;2024-02-28T07:17:40;43.28;;;21.98;;
12212;SDS011;6169;44.158;22.788;2024-02-28T07:22:42;47.28;;;25.25;;
12212;SDS011;6169;44.158;22.788;2024-02-28T07:27:46;42.33;;;18.95;;
12212;SDS011;6169;44.158;22.788;2024-02-28T07:32:48;43.45;;;23.33;;
12212;SDS011;6169;44.158;22.788;2024-02-28T07:37:50;29.80;;;14.65;;
12212;SDS011;6169;44.158;22.788;2024-02-28T07:42:53;25.10;;;13.13;;
12212;SDS011;6169;44.158;22.788;2024-02-28T07:47:55;28.27;;;13.32;;
12212;SDS011;6169;44.158;22.788;2024-02-28T07:52:57;24.48;;;13.02;;
12212;SDS011;6169;44.158;22.788;2024-02-28T07:58:01;25.73;;;13.02;;
12212;SDS011;6169;44.158;22.788;2024-02-28T08:03:03;20.50;;;10.20;;
12212;SDS011;6169;44.158;22.788;2024-02-28T08:08:05;16.70;;;10.23;;
12212;SDS011;6169;44.158;22.788;2024-02-28T08:13:09;21.65;;;11.65;;
12212;SDS011;6169;44.158;22.788;2024-02-28T08:18:11;19.35;;;9.35;;
12212;SDS011;6169;44.158;22.788;2024-02-28T08:23:13;17.45;;;11.00;;
12212;SDS011;6169;44.158;22.788;2024-02-28T08:28:17;21.92;;;10.13;;
12212;SDS011;6169;44.158;22.788;2024-02-28T08:33:19;25.60;;;12.63;;
12212;SDS011;6169;44.158;22.788;2024-02-28T08:38:21;21.33;;;11.18;;
12212;SDS011;6169;44.158;22.788;2024-02-28T08:43:25;17.80;;;9.32;;
12212;SDS011;6169;44.158;22.788;2024-02-28T08:48:27;20.23;;;10.55;;
12212;SDS011;6169;44.158;22.788;2024-02-28T08:53:29;27.65;;;9.73;;
12212;SDS011;6169;44.158;22.788;2024-02-28T08:58:32;18.15;;;9.65;;
12212;SDS011;6169;44.158;22.788;2024-02-28T09:03:34;20.33;;;8.82;;
12212;SDS011;6169;44.158;22.788;2024-02-28T09:08:36;65.32;;;13.85;;
12212;SDS011;6169;44.158;22.788;2024-02-28T09:13:40;21.52;;;9.65;;
12212;SDS011;6169;44.158;22.788;2024-02-28T09:18:42;18.88;;;9.48;;
12212;SDS011;6169;44.158;22.788;2024-02-28T09:23:44;23.77;;;8.45;;
12212;SDS011;6169;44.158;22.788;2024-02-28T09:28:47;17.90;;;9.45;;
12212;SDS011;6169;44.158;22.788;2024-02-28T09:33:49;20.40;;;8.32;;
12212;SDS011;6169;44.158;22.788;2024-02-28T09:38:51;22.45;;;9.35;;
12212;SDS011;6169;44.158;22.788;2024-02-28T09:43:55;17.85;;;8.68;;
12212;SDS011;6169;44.158;22.788;2024-02-28T09:48:58;23.23;;;9.20;;
12212;SDS011;6169;44.158;22.788;2024-02-28T09:54:03;15.18;;;7.85;;
12212;SDS011;6169;44.158;22.788;2024-02-28T09:59:07;16.73;;;7.30;;
12212;SDS011;6169;44.158;22.788;2024-02-28T10:04:09;18.77;;;9.45;;
12212;SDS011;6169;44.158;22.788;2024-02-28T10:09:13;18.20;;;9.23;;
12212;SDS011;6169;44.158;22.788;2024-02-28T10:14:18;11.35;;;7.00;;
12212;SDS011;6169;44.158;22.788;2024-02-28T10:19:20;14.98;;;8.25;;
12212;SDS011;6169;44.158;22.788;2024-02-28T10:24:23;18.25;;;7.97;;
12212;SDS011;6169;44.158;22.788;2024-02-28T10:29:27;17.00;;;7.72;;
12212;SDS011;6169;44.158;22.788;2024-02-28T10:34:29;20.65;;;9.73;;
12212;SDS011;6169;44.158;22.788;2024-02-28T10:39:33;21.70;;;8.55;;
12212;SDS011;6169;44.158;22.788;2024-02-28T10:44:38;13.05;;;7.07;;
12212;SDS011;6169;44.158;22.788;2024-02-28T10:49:43;120.38;;;20.70;;
12212;SDS011;6169;44.158;22.788;2024-02-28T10:54:45;19.15;;;7.93;;
12212;SDS011;6169;44.158;22.788;2024-02-28T10:59:55;17.73;;;7.13;;
12212;SDS011;6169;44.158;22.788;2024-02-28T11:04:59;25.30;;;8.68;;
12212;SDS011;6169;44.158;22.788;2024-02-28T11:10:04;14.13;;;6.82;;
12212;SDS011;6169;44.158;22.788;2024-02-28T11:15:15;18.02;;;7.30;;
12212;SDS011;6169;44.158;22.788;2024-02-28T11:20:18;18.15;;;7.20;;
12212;SDS011;6169;44.158;22.788;2024-02-28T11:25:22;17.27;;;7.25;;
12212;SDS011;6169;44.158;22.788;2024-02-28T11:30:26;18.17;;;7.63;;
12212;SDS011;6169;44.158;22.788;2024-02-28T11:35:28;22.13;;;7.65;;
12212;SDS011;6169;44.158;22.788;2024-02-28T11:40:32;15.30;;;6.95;;
12212;SDS011;6169;44.158;22.788;2024-02-28T11:45:40;12.95;;;6.53;;
12212;SDS011;6169;44.158;22.788;2024-02-28T11:50:43;17.58;;;7.32;;
12212;SDS011;6169;44.158;22.788;2024-02-28T11:55:45;10.63;;;6.55;;
12212;SDS011;6169;44.158;22.788;2024-02-28T12:00:49;15.00;;;7.30;;
12212;SDS011;6169;44.158;22.788;2024-02-28T12:05:52;10.50;;;6.32;;
12212;SDS011;6169;44.158;22.788;2024-02-28T12:10:54;14.25;;;7.57;;
12212;SDS011;6169;44.158;22.788;2024-02-28T12:15:58;14.15;;;7.10;;
12212;SDS011;6169;44.158;22.788;2024-02-28T12:21:00;10.77;;;6.07;;
12212;SDS011;6169;44.158;22.788;2024-02-28T12:26:02;9.90;;;6.38;;
12212;SDS011;6169;44.158;22.788;2024-02-28T12:31:06;16.88;;;7.15;;
12212;SDS011;6169;44.158;22.788;2024-02-28T12:36:10;16.27;;;5.25;;
12212;SDS011;6169;44.158;22.788;2024-02-28T12:41:12;16.88;;;6.68;;
12212;SDS011;6169;44.158;22.788;2024-02-28T12:46:16;18.70;;;5.85;;
12212;SDS011;6169;44.158;22.788;2024-02-28T12:51:20;15.88;;;7.45;;
12212;SDS011;6169;44.158;22.788;2024-02-28T12:56:38;13.80;;;6.25;;
12212;SDS011;6169;44.158;22.788;2024-02-28T13:01:44;14.02;;;6.25;;
12212;SDS011;6169;44.158;22.788;2024-02-28T13:06:48;19.08;;;6.72;;
12212;SDS011;6169;44.158;22.788;2024-02-28T13:11:50;14.60;;;7.05;;
12212;SDS011;6169;44.158;22.788;2024-02-28T13:16:53;13.57;;;7.40;;
12212;SDS011;6169;44.158;22.788;2024-02-28T13:21:55;25.13;;;8.02;;
12212;SDS011;6169;44.158;22.788;2024-02-28T13:26:57;17.90;;;6.07;;
12212;SDS011;6169;44.158;22.788;2024-02-28T13:32:01;14.38;;;7.07;;
12212;SDS011;6169;44.158;22.788;2024-02-28T13:37:03;18.25;;;8.80;;
12212;SDS011;6169;44.158;22.788;2024-02-28T13:42:06;10.73;;;5.45;;
12212;SDS011;6169;44.158;22.788;2024-02-28T13:47:11;16.42;;;7.35;;
12212;SDS011;6169;44.158;22.788;2024-02-28T13:52:13;7.75;;;5.28;;
12212;SDS011;6169;44.158;22.788;2024-02-28T13:57:16;13.85;;;6.05;;
12212;SDS011;6169;44.158;22.788;2024-02-28T14:02:19;20.92;;;6.50;;
12212;SDS011;6169;44.158;22.788;2024-02-28T14:07:21;15.82;;;6.97;;
12212;SDS011;6169;44.158;22.788;2024-02-28T14:12:24;16.10;;;6.18;;
12212;SDS011;6169;44.158;22.788;2024-02-28T14:17:27;32.67;;;8.77;;
12212;SDS011;6169;44.158;22.788;2024-02-28T14:22:29;17.35;;;7.03;;
12212;SDS011;6169;44.158;22.788;2024-02-28T14:27:32;13.80;;;5.68;;
12212;SDS011;6169;44.158;22.788;2024-02-28T14:32:37;16.75;;;6.60;;
12212;SDS011;6169;44.158;22.788;2024-02-28T14:37:40;14.93;;;4.90;;
12212;SDS011;6169;44.158;22.788;2024-02-28T14:42:42;9.40;;;5.28;;
12212;SDS011;6169;44.158;22.788;2024-02-28T14:47:46;14.70;;;5.75;;
12212;SDS011;6169;44.158;22.788;2024-02-28T14:52:48;11.13;;;5.93;;
12212;SDS011;6169;44.158;22.788;2024-02-28T14:57:50;11.75;;;5.65;;
12212;SDS011;6169;44.158;22.788;2024-02-28T15:02:54;14.55;;;7.72;;
12212;SDS011;6169;44.158;22.788;2024-02-28T15:07:56;17.90;;;8.55;;
12212;SDS011;6169;44.158;22.788;2024-02-28T15:12:58;30.33;;;13.55;;
12212;SDS011;6169;44.158;22.788;2024-02-28T15:18:01;30.52;;;14.85;;
12212;SDS011;6169;44.158;22.788;2024-02-28T15:23:04;20.17;;;12.88;;
12212;SDS011;6169;44.158;22.788;2024-02-28T15:28:06;27.17;;;12.63;;
12212;SDS011;6169;44.158;22.788;2024-02-28T15:33:09;29.80;;;11.98;;
12212;SDS011;6169;44.158;22.788;2024-02-28T15:38:11;25.70;;;11.85;;
12212;SDS011;6169;44.158;22.788;2024-02-28T15:43:14;23.45;;;10.55;;
12212;SDS011;6169;44.158;22.788;2024-02-28T15:48:17;21.13;;;11.30;;
12212;SDS011;6169;44.158;22.788;2024-02-28T15:53:20;29.92;;;13.90;;
12212;SDS011;6169;44.158;22.788;2024-02-28T15:58:22;22.10;;;12.15;;
12212;SDS011;6169;44.158;22.788;2024-02-28T16:03:25;20.67;;;12.40;;
12212;SDS011;6169;44.158;22.788;2024-02-28T16:08:27;17.65;;;8.35;;
12212;SDS011;6169;44.158;22.788;2024-02-28T16:13:29;14.90;;;8.10;;
12212;SDS011;6169;44.158;22.788;2024-02-28T16:18:33;16.38;;;9.63;;
12212;SDS011;6169;44.158;22.788;2024-02-28T16:23:35;31.98;;;13.50;;
12212;SDS011;6169;44.158;22.788;2024-02-28T16:28:37;41.40;;;21.13;;
12212;SDS011;6169;44.158;22.788;2024-02-28T16:33:41;47.85;;;22.85;;
12212;SDS011;6169;44.158;22.788;2024-02-28T16:38:43;31.42;;;17.83;;
12212;SDS011;6169;44.158;22.788;2024-02-28T16:43:45;35.58;;;16.13;;
12212;SDS011;6169;44.158;22.788;2024-02-28T16:48:49;27.45;;;14.45;;
12212;SDS011;6169;44.158;22.788;2024-02-28T16:53:51;27.67;;;14.57;;
12212;SDS011;6169;44.158;22.788;2024-02-28T16:58:53;33.00;;;13.18;;
12212;SDS011;6169;44.158;22.788;2024-02-28T17:03:57;28.33;;;13.95;;
12212;SDS011;6169;44.158;22.788;2024-02-28T17:08:59;24.02;;;12.55;;
12212;SDS011;6169;44.158;22.788;2024-02-28T17:14:01;25.23;;;13.30;;
12212;SDS011;6169;44.158;22.788;2024-02-28T17:19:04;20.73;;;11.55;;
12212;SDS011;6169;44.158;22.788;2024-02-28T17:24:06;23.33;;;12.20;;
12212;SDS011;6169;44.158;22.788;2024-02-28T17:29:08;22.45;;;11.75;;
12212;SDS011;6169;44.158;22.788;2024-02-28T17:34:12;27.63;;;13.38;;
12212;SDS011;6169;44.158;22.788;2024-02-28T17:39:14;34.78;;;17.05;;
12212;SDS011;6169;44.158;22.788;2024-02-28T17:44:17;43.63;;;21.27;;
12212;SDS011;6169;44.158;22.788;2024-02-28T17:49:21;37.28;;;19.08;;
12212;SDS011;6169;44.158;22.788;2024-02-28T17:54:24;49.72;;;23.05;;
12212;SDS011;6169;44.158;22.788;2024-02-28T17:59:26;52.03;;;22.42;;
12212;SDS011;6169;44.158;22.788;2024-02-28T18:04:30;41.50;;;19.80;;
12212;SDS011;6169;44.158;22.788;2024-02-28T18:09:32;40.45;;;18.33;;
12212;SDS011;6169;44.158;22.788;2024-02-28T18:14:33;44.25;;;22.23;;
12212;SDS011;6169;44.158;22.788;2024-02-28T18:19:38;44.83;;;22.48;;
12212;SDS011;6169;44.158;22.788;2024-02-28T18:24:40;33.97;;;20.65;;
12212;SDS011;6169;44.158;22.788;2024-02-28T18:29:42;27.92;;;16.15;;
12212;SDS011;6169;44.158;22.788;2024-02-28T18:34:45;34.75;;;18.15;;
12212;SDS011;6169;44.158;22.788;2024-02-28T18:39:47;33.60;;;18.83;;
12212;SDS011;6169;44.158;22.788;2024-02-28T18:44:52;40.17;;;20.20;;
12212;SDS011;6169;44.158;22.788;2024-02-28T18:49:57;42.38;;;22.15;;
12212;SDS011;6169;44.158;22.788;2024-02-28T18:54:59;32.05;;;20.52;;
12212;SDS011;6169;44.158;22.788;2024-02-28T19:00:01;37.70;;;19.48;;
12212;SDS011;6169;44.158;22.788;2024-02-28T19:05:06;132.10;;;58.42;;
12212;SDS011;6169;44.158;22.788;2024-02-28T19:10:08;43.83;;;22.45;;
12212;SDS011;6169;44.158;22.788;2024-02-28T19:15:11;42.15;;;23.67;;
12212;SDS011;6169;44.158;22.788;2024-02-28T19:20:15;48.65;;;24.17;;
12212;SDS011;6169;44.158;22.788;2024-02-28T19:25:17;47.60;;;24.33;;
12212;SDS011;6169;44.158;22.788;2024-02-28T19:30:19;58.60;;;28.08;;
12212;SDS011;6169;44.158;22.788;2024-02-28T19:35:22;53.50;;;27.25;;
12212;SDS011;6169;44.158;22.788;2024-02-28T19:40:24;51.22;;;28.02;;
12212;SDS011;6169;44.158;22.788;2024-02-28T19:45:26;52.67;;;27.90;;
12212;SDS011;6169;44.158;22.788;2024-02-28T19:50:30;53.08;;;23.05;;
12212;SDS011;6169;44.158;22.788;2024-02-28T19:55:32;49.55;;;20.20;;
12212;SDS011;6169;44.158;22.788;2024-02-28T20:00:35;49.90;;;23.83;;
12212;SDS011;6169;44.158;22.788;2024-02-28T20:05:41;63.67;;;28.42;;
12212;SDS011;6169;44.158;22.788;2024-02-28T20:10:43;62.42;;;29.70;;
12212;SDS011;6169;44.158;22.788;2024-02-28T20:15:45;60.60;;;30.40;;
12212;SDS011;6169;44.158;22.788;2024-02-28T20:20:49;52.03;;;27.17;;
12212;SDS011;6169;44.158;22.788;2024-02-28T20:25:51;64.38;;;30.92;;
12212;SDS011;6169;44.158;22.788;2024-02-28T20:30:53;54.50;;;31.15;;
12212;SDS011;6169;44.158;22.788;2024-02-28T20:35:56;56.00;;;30.45;;
12212;SDS011;6169;44.158;22.788;2024-02-28T20:40:58;60.22;;;28.92;;
12212;SDS011;6169;44.158;22.788;2024-02-28T20:46:00;57.47;;;26.00;;
12212;SDS011;6169;44.158;22.788;2024-02-28T20:51:04;44.22;;;24.02;;
12212;SDS011;6169;44.158;22.788;2024-02-28T20:56:06;50.17;;;26.33;;
12212;SDS011;6169;44.158;22.788;2024-02-28T21:01:09;42.80;;;21.15;;
12212;SDS011;6169;44.158;22.788;2024-02-28T21:06:13;31.55;;;19.35;;
12212;SDS011;6169;44.158;22.788;2024-02-28T21:11:15;37.47;;;19.05;;
12212;SDS011;6169;44.158;22.788;2024-02-28T21:16:17;44.10;;;21.83;;
12212;SDS011;6169;44.158;22.788;2024-02-28T21:21:21;51.75;;;24.45;;
12212;SDS011;6169;44.158;22.788;2024-02-28T21:26:26;40.25;;;23.02;;
12212;SDS011;6169;44.158;22.788;2024-02-28T21:31:29;35.10;;;17.80;;
12212;SDS011;6169;44.158;22.788;2024-02-28T21:36:33;32.60;;;17.05;;
12212;SDS011;6169;44.158;22.788;2024-02-28T21:41:35;28.70;;;16.50;;
12212;SDS011;6169;44.158;22.788;2024-02-28T21:46:37;36.05;;;18.58;;
12212;SDS011;6169;44.158;22.788;2024-02-28T21:51:40;34.53;;;19.85;;
12212;SDS011;6169;44.158;22.788;2024-02-28T21:56:42;36.03;;;20.20;;
12212;SDS011;6169;44.158;22.788;2024-02-28T22:01:44;37.67;;;19.83;;
12212;SDS011;6169;44.158;22.788;2024-02-28T22:06:48;33.10;;;17.73;;
12212;SDS011;6169;44.158;22.788;2024-02-28T22:11:50;36.80;;;15.43;;
12212;SDS011;6169;44.158;22.788;2024-02-28T22:16:52;29.10;;;15.05;;
12212;SDS011;6169;44.158;22.788;2024-02-28T22:21:56;29.83;;;16.73;;
12212;SDS011;6169;44.158;22.788;2024-02-28T22:26:58;27.83;;;14.65;;
12212;SDS011;6169;44.158;22.788;2024-02-28T22:32:01;32.25;;;15.73;;
12212;SDS011;6169;44.158;22.788;2024-02-28T22:37:05;33.97;;;15.82;;
12212;SDS011;6169;44.158;22.788;2024-02-28T22:42:07;28.83;;;16.20;;
12212;SDS011;6169;44.158;22.788;2024-02-28T22:47:09;34.75;;;17.50;;
12212;SDS011;6169;44.158;22.788;2024-02-28T22:52:12;25.63;;;16.67;;
12212;SDS011;6169;44.158;22.788;2024-02-28T22:57:14;32.50;;;17.10;;
12212;SDS011;6169;44.158;22.788;2024-02-28T23:02:16;24.70;;;15.60;;
12212;SDS011;6169;44.158;22.788;2024-02-28T23:07:20;33.75;;;16.55;;
12212;SDS011;6169;44.158;22.788;2024-02-28T23:12:23;26.63;;;16.48;;
12212;SDS011;6169;44.158;22.788;2024-02-28T23:17:25;27.30;;;16.05;;
12212;SDS011;6169;44.158;22.788;2024-02-28T23:22:28;27.83;;;14.90;;
12212;SDS011;6169;44.158;22.788;2024-02-28T23:27:30;28.52;;;16.85;;
12212;SDS011;6169;44.158;22.788;2024-02-28T23:32:33;28.42;;;15.55;;
12212;SDS011;6169;44.158;22.788;2024-02-28T23:37:36;26.33;;;16.05;;
12212;SDS011;6169;44.158;22.788;2024-02-28T23:42:38;29.00;;;16.70;;
12212;SDS011;6169;44.158;22.788;2024-02-28T23:47:41;28.50;;;16.27;;
12212;SDS011;6169;44.158;22.788;2024-02-28T23:52:45;27.38;;;14.88;;
12212;SDS011;6169;44.158;22.788;2024-02-28T23:57:47;31.65;;;17.60;;
